createdAt,value
2018-09-05T00:04:22.470Z,65.74
2018-09-05T00:09:24.600Z,65.70
2018-09-05T00:14:26.745Z,66.32
2018-09-05T00:19:28.866Z,66.64
2018-09-05T00:24:31.031Z,66.65
2018-09-05T00:29:33.212Z,66.41
2018-09-05T00:34:35.397Z,66.56
2018-09-05T00:39:37.547Z,66.75
2018-09-05T00:44:39.660Z,66.68
2018-09-05T00:49:41.785Z,66.80
2018-09-05T00:54:43.920Z,67.42
2018-09-05T00:59:46.078Z,67.07
2018-09-05T01:04:48.395Z,66.53
2018-09-05T01:09:50.578Z,66.58
2018-09-05T01:14:53.596Z,67.26
2018-09-05T01:19:55.730Z,67.07
2018-09-05T01:24:57.854Z,66.76
2018-09-05T01:30:00.022Z,66.29
2018-09-05T01:35:02.166Z,66.38
2018-09-05T01:40:04.391Z,66.46
2018-09-05T01:45:06.553Z,67.24
2018-09-05T01:50:08.684Z,67.48
2018-09-05T01:55:10.827Z,66.86
2018-09-05T02:00:18.703Z,66.74
2018-09-05T02:05:20.847Z,66.93
2018-09-05T02:10:23.007Z,66.53
2018-09-05T02:15:25.248Z,67.72
2018-09-05T02:20:27.426Z,67.18
2018-09-05T02:25:29.570Z,66.80
2018-09-05T02:30:31.677Z,67.50
2018-09-05T02:35:33.819Z,68.60
2018-09-05T02:40:36.014Z,67.21
2018-09-05T02:45:38.134Z,67.29
2018-09-05T02:50:40.295Z,66.85
2018-09-05T02:55:48.045Z,66.92
2018-09-05T03:00:50.203Z,66.39
2018-09-05T03:05:52.530Z,66.49
2018-09-05T03:10:54.682Z,66.53
2018-09-05T03:15:56.793Z,66.06
2018-09-05T03:20:58.914Z,66.99
2018-09-05T03:26:01.091Z,66.51
2018-09-05T03:31:03.246Z,66.88
2018-09-05T03:36:05.391Z,66.24
2018-09-05T03:41:07.522Z,66.30
2018-09-05T03:46:09.641Z,66.73
2018-09-05T03:51:11.791Z,67.39
2018-09-05T03:56:13.953Z,66.79
2018-09-05T04:01:16.105Z,66.93
2018-09-05T04:06:20.715Z,67.41
2018-09-05T04:11:22.833Z,67.59
2018-09-05T04:16:24.986Z,67.72
2018-09-05T04:21:27.156Z,68.71
2018-09-05T04:26:29.272Z,68.79
2018-09-05T04:31:31.422Z,69.42
2018-09-05T04:36:33.567Z,69.22
2018-09-05T04:41:35.726Z,69.11
2018-09-05T04:46:37.881Z,69.03
2018-09-05T04:51:40.053Z,68.87
2018-09-05T04:56:42.170Z,68.43
2018-09-05T05:01:44.322Z,69.04
2018-09-05T05:06:46.528Z,69.08
2018-09-05T05:11:48.681Z,69.09
2018-09-05T05:16:51.014Z,69.53
2018-09-05T05:21:53.156Z,69.61
2018-09-05T05:26:55.338Z,69.78
2018-09-05T05:31:57.502Z,70.74
2018-09-05T05:36:59.628Z,70.44
2018-09-05T05:42:01.745Z,70.35
2018-09-05T05:47:03.880Z,69.92
2018-09-05T05:52:05.928Z,69.47
2018-09-05T05:57:08.005Z,69.47
2018-09-05T06:02:10.174Z,68.47
2018-09-05T06:07:12.309Z,67.89
2018-09-05T06:12:14.537Z,68.16
2018-09-05T06:17:16.643Z,67.96
2018-09-05T06:22:18.905Z,67.74
2018-09-05T06:27:21.058Z,67.11
2018-09-05T06:32:23.215Z,67.50
2018-09-05T06:37:25.301Z,66.91
2018-09-05T06:42:27.438Z,67.00
2018-09-05T06:47:29.576Z,66.77
2018-09-05T06:52:31.707Z,67.37
2018-09-05T06:57:34.232Z,67.17
2018-09-05T07:02:36.434Z,68.17
2018-09-05T07:07:38.581Z,68.14
2018-09-05T07:12:40.772Z,68.59
2018-09-05T07:17:42.906Z,68.83
2018-09-05T07:22:45.018Z,68.53
2018-09-05T07:27:47.140Z,68.85
2018-09-05T07:32:49.301Z,68.55
2018-09-05T07:37:51.432Z,68.78
2018-09-05T07:42:53.602Z,67.64
2018-09-05T07:47:55.766Z,68.13
2018-09-05T07:52:58.169Z,67.89
2018-09-05T07:58:00.433Z,67.09
2018-09-05T08:03:02.972Z,67.25
2018-09-05T08:08:05.128Z,67.29
2018-09-05T08:13:07.295Z,67.94
2018-09-05T08:18:09.499Z,67.43
2018-09-05T08:23:11.645Z,66.01
2018-09-05T08:28:13.752Z,65.63
2018-09-05T08:33:15.931Z,65.27
2018-09-05T08:38:18.123Z,64.64
2018-09-05T08:43:20.317Z,64.00
2018-09-05T08:48:22.542Z,63.87
2018-09-05T08:53:24.580Z,63.77
2018-09-05T08:58:26.755Z,63.11
2018-09-05T09:03:29.067Z,63.74
2018-09-05T09:08:31.196Z,63.13
2018-09-05T09:13:33.337Z,63.13
2018-09-05T09:18:35.511Z,62.26
2018-09-05T09:23:37.910Z,62.68
2018-09-05T09:28:40.053Z,62.60
2018-09-05T09:33:42.227Z,62.41
2018-09-05T09:38:44.356Z,63.07
2018-09-05T09:43:46.503Z,61.45
2018-09-05T09:48:48.663Z,60.39
2018-09-05T09:53:51.724Z,59.58
2018-09-05T09:58:53.955Z,59.76
2018-09-05T10:04:01.755Z,59.54
2018-09-05T10:09:12.441Z,58.79
2018-09-05T10:14:20.361Z,58.94
2018-09-05T10:19:22.526Z,57.60
2018-09-05T10:24:24.666Z,57.62
2018-09-05T10:29:26.842Z,59.03
2018-09-05T10:34:28.991Z,59.08
2018-09-05T10:39:31.145Z,58.37
2018-09-05T10:44:33.294Z,57.56
2018-09-05T10:49:35.422Z,58.15
2018-09-05T10:54:37.586Z,57.86
2018-09-05T10:59:39.717Z,57.97
2018-09-05T11:04:41.886Z,58.54
2018-09-05T11:09:44.012Z,57.81
2018-09-05T11:14:46.158Z,57.61
2018-09-05T11:19:48.262Z,55.83
2018-09-05T11:24:50.407Z,56.36
2018-09-05T11:29:52.537Z,56.60
2018-09-05T11:34:54.702Z,56.12
2018-09-05T11:39:56.854Z,54.89
2018-09-05T11:44:59.067Z,55.82
2018-09-05T11:50:01.197Z,56.20
2018-09-05T11:55:03.440Z,55.47
2018-09-05T12:00:49.727Z,55.51
2018-09-05T12:05:51.922Z,53.65
2018-09-05T12:10:54.076Z,52.96
2018-09-05T12:15:56.196Z,53.54
2018-09-05T12:20:58.322Z,52.65
2018-09-05T12:26:00.485Z,52.43
2018-09-05T12:31:02.637Z,51.85
2018-09-05T12:36:04.817Z,51.40
2018-09-05T12:41:06.939Z,53.38
2018-09-05T12:46:09.350Z,50.46
2018-09-05T12:51:11.527Z,50.24
2018-09-05T12:56:13.658Z,51.06
2018-09-05T13:01:15.842Z,49.00
2018-09-05T13:06:17.994Z,48.37
2018-09-05T13:11:20.326Z,50.05
2018-09-05T13:16:22.482Z,51.13
2018-09-05T13:21:24.664Z,48.87
2018-09-05T13:26:26.822Z,45.53
2018-09-05T13:31:28.926Z,44.69
2018-09-05T13:36:31.156Z,42.33
2018-09-05T13:41:33.357Z,41.18
2018-09-05T13:46:35.700Z,40.31
2018-09-05T13:51:38.109Z,39.53
2018-09-05T13:56:40.303Z,39.15
2018-09-05T14:01:42.483Z,38.56
2018-09-05T14:06:44.655Z,39.11
2018-09-05T14:11:46.875Z,40.06
2018-09-05T14:16:48.999Z,40.55
2018-09-05T14:21:51.212Z,40.56
2018-09-05T14:26:53.396Z,38.26
2018-09-05T14:31:55.594Z,36.62
2018-09-05T14:36:57.822Z,37.31
2018-09-05T14:42:00.002Z,40.17
2018-09-05T14:47:02.209Z,39.06
2018-09-05T14:52:04.383Z,37.46
2018-09-05T14:57:06.632Z,37.51
2018-09-05T15:02:08.825Z,38.77
2018-09-05T15:07:11.074Z,39.24
2018-09-05T15:12:13.256Z,38.31
2018-09-05T15:17:15.490Z,36.86
2018-09-05T15:22:17.687Z,39.74
2018-09-05T15:27:19.855Z,40.93
2018-09-05T15:32:22.107Z,39.77
2018-09-05T15:37:24.256Z,39.17
2018-09-05T15:42:26.594Z,39.57
2018-09-05T15:47:28.735Z,40.74
2018-09-05T15:52:30.896Z,41.20
2018-09-05T15:57:33.130Z,41.57
2018-09-05T16:02:35.240Z,41.91
2018-09-05T16:07:37.436Z,42.97
2018-09-05T16:12:39.591Z,43.17
2018-09-05T16:17:41.755Z,42.68
2018-09-05T16:22:43.905Z,43.45
2018-09-05T16:27:46.088Z,44.31
2018-09-05T16:32:48.241Z,45.41
2018-09-05T16:37:50.430Z,46.46
2018-09-05T16:42:52.656Z,47.38
2018-09-05T16:47:54.901Z,48.23
2018-09-05T16:52:57.096Z,49.19
2018-09-05T16:57:59.273Z,49.18
2018-09-05T17:03:01.459Z,49.94
2018-09-05T17:08:03.957Z,51.09
2018-09-05T17:13:06.169Z,51.44
2018-09-05T17:18:08.394Z,52.43
2018-09-05T17:23:10.581Z,52.45
2018-09-05T17:28:12.772Z,53.47
2018-09-05T17:33:15.477Z,54.21
2018-09-05T17:38:17.951Z,54.59
2018-09-05T17:43:20.094Z,54.92
2018-09-05T17:48:22.316Z,55.84
2018-09-05T17:53:24.536Z,56.47
2018-09-05T17:58:26.743Z,56.96
2018-09-05T18:03:29.002Z,56.87
2018-09-05T18:08:31.260Z,57.38
2018-09-05T18:13:33.463Z,59.69
2018-09-05T18:18:35.723Z,59.72
2018-09-05T18:23:37.914Z,59.33
2018-09-05T18:28:40.100Z,59.80
2018-09-05T18:33:42.369Z,59.73
2018-09-05T18:38:44.507Z,59.83
2018-09-05T18:43:46.759Z,60.06
2018-09-05T18:48:48.966Z,60.38
2018-09-05T18:53:51.176Z,61.11
2018-09-05T18:58:55.159Z,61.32
2018-09-05T19:03:57.368Z,61.38
2018-09-05T19:08:59.610Z,60.89
2018-09-05T19:14:02.372Z,61.06
2018-09-05T19:19:04.715Z,61.62
2018-09-05T19:24:06.927Z,61.67
2018-09-05T19:29:09.132Z,62.09
2018-09-05T19:34:11.385Z,61.49
2018-09-05T19:39:13.629Z,61.78
2018-09-05T19:44:15.841Z,61.20
2018-09-05T19:49:18.094Z,61.48
2018-09-05T19:54:20.415Z,61.09
2018-09-05T19:59:22.704Z,61.07
2018-09-05T20:04:25.171Z,61.27
2018-09-05T20:09:27.504Z,61.40
2018-09-05T20:14:29.951Z,60.63
2018-09-05T20:19:32.167Z,61.05
2018-09-05T20:24:34.348Z,60.57
2018-09-05T20:29:36.586Z,60.38
2018-09-05T20:34:38.796Z,60.83
2018-09-05T20:39:41.257Z,61.22
2018-09-05T20:44:43.460Z,60.86
2018-09-05T20:49:45.662Z,61.27
2018-09-05T20:54:47.791Z,60.95
2018-09-05T20:59:49.960Z,61.20
2018-09-05T21:04:52.105Z,61.21
2018-09-05T21:09:54.289Z,61.83
2018-09-05T21:14:56.440Z,61.55
2018-09-05T21:19:58.587Z,61.43
2018-09-05T21:25:00.718Z,61.56
2018-09-05T21:30:02.910Z,61.74
2018-09-05T21:35:05.050Z,61.23
2018-09-05T21:40:07.257Z,61.77
2018-09-05T21:45:09.437Z,62.82
2018-09-05T21:50:11.619Z,62.58
2018-09-05T21:55:13.825Z,63.55
2018-09-05T22:00:15.954Z,63.54
2018-09-05T22:05:18.105Z,64.44
2018-09-05T22:10:20.527Z,64.28
2018-09-05T22:15:23.255Z,65.32
2018-09-05T22:20:25.400Z,65.55
2018-09-05T22:25:27.537Z,65.58
2018-09-05T22:30:30.486Z,65.76
2018-09-05T22:35:32.640Z,66.04
2018-09-05T22:40:40.431Z,66.02
2018-09-05T22:45:53.926Z,66.28
2018-09-05T22:52:10.449Z,66.79
2018-09-05T23:01:27.289Z,67.22
2018-09-05T23:06:42.612Z,67.76
2018-09-05T23:11:56.403Z,68.50
2018-09-05T23:19:18.568Z,68.92
2018-09-05T23:24:20.717Z,69.33
2018-09-05T23:29:23.343Z,69.58
2018-09-05T23:34:25.511Z,69.71
2018-09-05T23:39:27.621Z,69.58
2018-09-05T23:44:30.016Z,69.59
2018-09-05T23:49:32.124Z,70.21
2018-09-05T23:54:34.343Z,70.32
2018-09-05T23:59:36.588Z,70.09
